sensor_id;sensor_type;location;lat;lon;timestamp;temperature;humidity
24260;DHT22;12384;48.112;18.418;2022-12-08T00:02:05;3.30;97.10
24260;DHT22;12384;48.112;18.418;2022-12-08T00:04:33;3.30;97.10
24260;DHT22;12384;48.112;18.418;2022-12-08T00:07:22;3.30;97.20
24260;DHT22;12384;48.112;18.418;2022-12-08T00:10:09;3.30;97.20
24260;DHT22;12384;48.112;18.418;2022-12-08T00:12:57;3.20;97.20
24260;DHT22;12384;48.112;18.418;2022-12-08T00:15:27;3.20;97.20
24260;DHT22;12384;48.112;18.418;2022-12-08T00:17:55;3.20;97.20
24260;DHT22;12384;48.112;18.418;2022-12-08T00:20:24;3.20;97.30
24260;DHT22;12384;48.112;18.418;2022-12-08T00:22:52;3.20;97.30
24260;DHT22;12384;48.112;18.418;2022-12-08T00:25:21;3.20;97.40
24260;DHT22;12384;48.112;18.418;2022-12-08T00:27:49;3.20;97.50
24260;DHT22;12384;48.112;18.418;2022-12-08T00:30:18;3.20;97.50
24260;DHT22;12384;48.112;18.418;2022-12-08T00:32:47;3.20;97.60
24260;DHT22;12384;48.112;18.418;2022-12-08T00:35:16;3.20;97.60
24260;DHT22;12384;48.112;18.418;2022-12-08T00:37:45;3.20;97.80
24260;DHT22;12384;48.112;18.418;2022-12-08T00:40:13;3.20;97.80
24260;DHT22;12384;48.112;18.418;2022-12-08T00:42:42;3.20;97.90
24260;DHT22;12384;48.112;18.418;2022-12-08T00:45:11;3.10;98.10
24260;DHT22;12384;48.112;18.418;2022-12-08T00:47:39;3.10;98.60
24260;DHT22;12384;48.112;18.418;2022-12-08T00:50:09;3.10;98.60
24260;DHT22;12384;48.112;18.418;2022-12-08T00:52:38;3.10;98.70
24260;DHT22;12384;48.112;18.418;2022-12-08T00:55:07;3.00;99.10
24260;DHT22;12384;48.112;18.418;2022-12-08T00:57:35;3.00;99.30
24260;DHT22;12384;48.112;18.418;2022-12-08T01:00:05;3.00;99.20
24260;DHT22;12384;48.112;18.418;2022-12-08T01:02:34;2.90;99.10
24260;DHT22;12384;48.112;18.418;2022-12-08T01:05:02;2.90;99.10
24260;DHT22;12384;48.112;18.418;2022-12-08T01:07:32;2.90;98.90
24260;DHT22;12384;48.112;18.418;2022-12-08T01:10:02;2.80;98.80
24260;DHT22;12384;48.112;18.418;2022-12-08T01:12:31;2.80;98.80
24260;DHT22;12384;48.112;18.418;2022-12-08T01:15:00;2.70;98.90
24260;DHT22;12384;48.112;18.418;2022-12-08T01:17:29;2.70;99.00
24260;DHT22;12384;48.112;18.418;2022-12-08T01:19:57;2.70;99.20
24260;DHT22;12384;48.112;18.418;2022-12-08T01:22:26;2.60;99.40
24260;DHT22;12384;48.112;18.418;2022-12-08T01:24:56;2.60;99.60
24260;DHT22;12384;48.112;18.418;2022-12-08T01:27:24;2.60;99.90
24260;DHT22;12384;48.112;18.418;2022-12-08T01:29:53;2.60;99.90
24260;DHT22;12384;48.112;18.418;2022-12-08T01:32:21;2.60;99.90
24260;DHT22;12384;48.112;18.418;2022-12-08T01:34:49;2.60;99.90
24260;DHT22;12384;48.112;18.418;2022-12-08T01:37:18;2.60;99.90
24260;DHT22;12384;48.112;18.418;2022-12-08T01:39:47;2.60;99.90
24260;DHT22;12384;48.112;18.418;2022-12-08T01:42:21;2.60;99.90
24260;DHT22;12384;48.112;18.418;2022-12-08T01:44:58;2.60;99.90
24260;DHT22;12384;48.112;18.418;2022-12-08T01:47:32;2.60;99.90
24260;DHT22;12384;48.112;18.418;2022-12-08T01:50:02;2.60;99.90
24260;DHT22;12384;48.112;18.418;2022-12-08T01:52:35;2.70;99.90
24260;DHT22;12384;48.112;18.418;2022-12-08T01:55:09;2.70;99.90
24260;DHT22;12384;48.112;18.418;2022-12-08T01:57:43;2.70;99.90
24260;DHT22;12384;48.112;18.418;2022-12-08T02:00:15;2.70;99.90
24260;DHT22;12384;48.112;18.418;2022-12-08T02:02:51;2.70;99.90
24260;DHT22;12384;48.112;18.418;2022-12-08T02:05:23;2.80;99.90
24260;DHT22;12384;48.112;18.418;2022-12-08T02:07:53;2.80;99.90
24260;DHT22;12384;48.112;18.418;2022-12-08T02:10:23;2.80;99.90
24260;DHT22;12384;48.112;18.418;2022-12-08T02:12:57;2.80;99.90
24260;DHT22;12384;48.112;18.418;2022-12-08T02:15:36;2.80;99.90
24260;DHT22;12384;48.112;18.418;2022-12-08T02:18:19;2.80;99.90
24260;DHT22;12384;48.112;18.418;2022-12-08T02:20:56;2.80;99.90
24260;DHT22;12384;48.112;18.418;2022-12-08T02:23:34;2.90;99.90
24260;DHT22;12384;48.112;18.418;2022-12-08T02:26:44;2.80;99.90
24260;DHT22;12384;48.112;18.418;2022-12-08T02:30:03;2.90;99.90
24260;DHT22;12384;48.112;18.418;2022-12-08T02:32:59;2.90;99.90
24260;DHT22;12384;48.112;18.418;2022-12-08T02:35:38;2.90;99.90
24260;DHT22;12384;48.112;18.418;2022-12-08T02:38:11;2.90;99.90
24260;DHT22;12384;48.112;18.418;2022-12-08T02:40:49;2.90;99.90
24260;DHT22;12384;48.112;18.418;2022-12-08T02:43:26;2.90;99.90
24260;DHT22;12384;48.112;18.418;2022-12-08T02:45:59;2.90;99.90
24260;DHT22;12384;48.112;18.418;2022-12-08T02:48:29;2.90;99.90
24260;DHT22;12384;48.112;18.418;2022-12-08T02:50:59;2.90;99.90
24260;DHT22;12384;48.112;18.418;2022-12-08T02:53:31;2.90;99.90
24260;DHT22;12384;48.112;18.418;2022-12-08T02:56:04;2.90;99.90
24260;DHT22;12384;48.112;18.418;2022-12-08T02:58:59;2.90;99.90
24260;DHT22;12384;48.112;18.418;2022-12-08T03:01:49;2.90;99.90
24260;DHT22;12384;48.112;18.418;2022-12-08T03:04:25;2.90;99.90
24260;DHT22;12384;48.112;18.418;2022-12-08T03:07:03;2.90;99.90
24260;DHT22;12384;48.112;18.418;2022-12-08T03:09:38;2.90;99.90
24260;DHT22;12384;48.112;18.418;2022-12-08T03:12:13;2.90;99.90
24260;DHT22;12384;48.112;18.418;2022-12-08T03:14:45;2.90;99.90
24260;DHT22;12384;48.112;18.418;2022-12-08T03:17:17;3.00;99.90
24260;DHT22;12384;48.112;18.418;2022-12-08T03:19:47;3.00;99.90
24260;DHT22;12384;48.112;18.418;2022-12-08T03:22:21;3.00;99.90
24260;DHT22;12384;48.112;18.418;2022-12-08T03:24:51;3.00;99.90
24260;DHT22;12384;48.112;18.418;2022-12-08T03:27:21;3.00;99.90
24260;DHT22;12384;48.112;18.418;2022-12-08T03:29:52;3.00;99.90
24260;DHT22;12384;48.112;18.418;2022-12-08T03:32:29;3.00;99.90
24260;DHT22;12384;48.112;18.418;2022-12-08T03:34:59;3.00;99.90
24260;DHT22;12384;48.112;18.418;2022-12-08T03:37:30;3.00;99.90
24260;DHT22;12384;48.112;18.418;2022-12-08T03:39:58;3.10;99.90
24260;DHT22;12384;48.112;18.418;2022-12-08T03:42:27;3.10;99.90
24260;DHT22;12384;48.112;18.418;2022-12-08T03:44:55;3.10;99.90
24260;DHT22;12384;48.112;18.418;2022-12-08T03:47:24;3.10;99.90
24260;DHT22;12384;48.112;18.418;2022-12-08T03:49:52;3.10;99.90
24260;DHT22;12384;48.112;18.418;2022-12-08T03:52:20;3.10;99.90
24260;DHT22;12384;48.112;18.418;2022-12-08T03:54:51;3.00;99.90
24260;DHT22;12384;48.112;18.418;2022-12-08T03:57:19;3.00;99.90
24260;DHT22;12384;48.112;18.418;2022-12-08T03:59:48;3.00;99.90
24260;DHT22;12384;48.112;18.418;2022-12-08T04:02:17;3.00;99.90
24260;DHT22;12384;48.112;18.418;2022-12-08T04:04:45;3.00;99.90
24260;DHT22;12384;48.112;18.418;2022-12-08T04:07:14;2.90;99.90
24260;DHT22;12384;48.112;18.418;2022-12-08T04:09:42;2.90;99.90
24260;DHT22;12384;48.112;18.418;2022-12-08T04:12:12;2.90;99.90
24260;DHT22;12384;48.112;18.418;2022-12-08T04:14:41;2.80;99.90
24260;DHT22;12384;48.112;18.418;2022-12-08T04:17:09;2.70;99.90
24260;DHT22;12384;48.112;18.418;2022-12-08T04:19:38;2.70;99.90
24260;DHT22;12384;48.112;18.418;2022-12-08T04:22:07;2.70;99.90
24260;DHT22;12384;48.112;18.418;2022-12-08T04:24:35;2.70;99.90
24260;DHT22;12384;48.112;18.418;2022-12-08T04:27:04;2.60;99.90
24260;DHT22;12384;48.112;18.418;2022-12-08T04:29:33;2.60;99.90
24260;DHT22;12384;48.112;18.418;2022-12-08T04:32:02;2.60;99.90
24260;DHT22;12384;48.112;18.418;2022-12-08T04:34:31;2.60;99.90
24260;DHT22;12384;48.112;18.418;2022-12-08T04:36:59;2.60;99.90
24260;DHT22;12384;48.112;18.418;2022-12-08T04:39:28;2.60;99.90
24260;DHT22;12384;48.112;18.418;2022-12-08T04:41:56;2.60;99.90
24260;DHT22;12384;48.112;18.418;2022-12-08T04:44:24;2.60;99.90
24260;DHT22;12384;48.112;18.418;2022-12-08T04:46:54;2.60;99.90
24260;DHT22;12384;48.112;18.418;2022-12-08T04:49:23;2.60;99.90
24260;DHT22;12384;48.112;18.418;2022-12-08T04:51:51;2.60;99.90
24260;DHT22;12384;48.112;18.418;2022-12-08T04:54:20;2.60;99.90
24260;DHT22;12384;48.112;18.418;2022-12-08T04:56:48;2.60;99.90
24260;DHT22;12384;48.112;18.418;2022-12-08T04:59:17;2.60;99.90
24260;DHT22;12384;48.112;18.418;2022-12-08T05:01:45;2.60;99.90
24260;DHT22;12384;48.112;18.418;2022-12-08T05:04:15;2.60;99.90
24260;DHT22;12384;48.112;18.418;2022-12-08T05:06:44;2.60;99.90
24260;DHT22;12384;48.112;18.418;2022-12-08T05:09:12;2.60;99.90
24260;DHT22;12384;48.112;18.418;2022-12-08T05:11:40;2.60;99.90
24260;DHT22;12384;48.112;18.418;2022-12-08T05:14:16;2.60;99.90
24260;DHT22;12384;48.112;18.418;2022-12-08T05:16:45;2.60;99.90
24260;DHT22;12384;48.112;18.418;2022-12-08T05:19:16;2.60;99.90
24260;DHT22;12384;48.112;18.418;2022-12-08T05:21:45;2.50;99.90
24260;DHT22;12384;48.112;18.418;2022-12-08T05:24:13;2.50;99.90
24260;DHT22;12384;48.112;18.418;2022-12-08T05:26:42;2.50;99.90
24260;DHT22;12384;48.112;18.418;2022-12-08T05:29:10;2.50;99.90
24260;DHT22;12384;48.112;18.418;2022-12-08T05:31:39;2.50;99.90
24260;DHT22;12384;48.112;18.418;2022-12-08T05:34:08;2.50;99.90
24260;DHT22;12384;48.112;18.418;2022-12-08T05:36:37;2.50;99.90
24260;DHT22;12384;48.112;18.418;2022-12-08T05:39:06;2.40;99.90
24260;DHT22;12384;48.112;18.418;2022-12-08T05:41:34;2.40;99.90
24260;DHT22;12384;48.112;18.418;2022-12-08T05:44:03;2.40;99.90
24260;DHT22;12384;48.112;18.418;2022-12-08T05:46:32;2.40;99.90
24260;DHT22;12384;48.112;18.418;2022-12-08T05:49:01;2.40;99.90
24260;DHT22;12384;48.112;18.418;2022-12-08T05:51:29;2.40;99.90
24260;DHT22;12384;48.112;18.418;2022-12-08T05:53:59;2.40;99.90
24260;DHT22;12384;48.112;18.418;2022-12-08T05:56:28;2.40;99.90
24260;DHT22;12384;48.112;18.418;2022-12-08T05:58:56;2.40;99.90
24260;DHT22;12384;48.112;18.418;2022-12-08T06:01:27;2.30;99.90
24260;DHT22;12384;48.112;18.418;2022-12-08T06:03:57;2.30;99.90
24260;DHT22;12384;48.112;18.418;2022-12-08T06:06:26;2.30;99.90
24260;DHT22;12384;48.112;18.418;2022-12-08T06:08:54;2.30;99.90
24260;DHT22;12384;48.112;18.418;2022-12-08T06:11:26;2.30;99.90
24260;DHT22;12384;48.112;18.418;2022-12-08T06:13:56;2.30;99.90
24260;DHT22;12384;48.112;18.418;2022-12-08T06:16:25;2.30;99.90
24260;DHT22;12384;48.112;18.418;2022-12-08T06:18:54;2.30;99.90
24260;DHT22;12384;48.112;18.418;2022-12-08T06:21:23;2.30;99.90
24260;DHT22;12384;48.112;18.418;2022-12-08T06:23:53;2.30;99.90
24260;DHT22;12384;48.112;18.418;2022-12-08T06:26:23;2.30;99.90
24260;DHT22;12384;48.112;18.418;2022-12-08T06:28:52;2.30;99.90
24260;DHT22;12384;48.112;18.418;2022-12-08T06:31:23;2.30;99.90
24260;DHT22;12384;48.112;18.418;2022-12-08T06:33:53;2.30;99.90
24260;DHT22;12384;48.112;18.418;2022-12-08T06:36:23;2.30;99.90
24260;DHT22;12384;48.112;18.418;2022-12-08T06:38:52;2.30;99.90
24260;DHT22;12384;48.112;18.418;2022-12-08T06:41:21;2.30;99.90
24260;DHT22;12384;48.112;18.418;2022-12-08T06:43:51;2.20;99.90
24260;DHT22;12384;48.112;18.418;2022-12-08T06:46:22;2.30;99.90
24260;DHT22;12384;48.112;18.418;2022-12-08T06:48:51;2.30;99.90
24260;DHT22;12384;48.112;18.418;2022-12-08T06:51:20;2.30;99.90
24260;DHT22;12384;48.112;18.418;2022-12-08T06:53:49;2.30;99.90
24260;DHT22;12384;48.112;18.418;2022-12-08T06:56:18;2.30;99.90
24260;DHT22;12384;48.112;18.418;2022-12-08T06:58:49;2.30;99.90
24260;DHT22;12384;48.112;18.418;2022-12-08T07:01:21;2.30;99.90
24260;DHT22;12384;48.112;18.418;2022-12-08T07:03:49;2.30;99.90
24260;DHT22;12384;48.112;18.418;2022-12-08T07:06:23;2.30;99.90
24260;DHT22;12384;48.112;18.418;2022-12-08T07:08:52;2.30;99.90
24260;DHT22;12384;48.112;18.418;2022-12-08T07:11:21;2.30;99.90
24260;DHT22;12384;48.112;18.418;2022-12-08T07:13:49;2.30;99.90
24260;DHT22;12384;48.112;18.418;2022-12-08T07:16:19;2.40;99.90
24260;DHT22;12384;48.112;18.418;2022-12-08T07:18:48;2.40;99.90
24260;DHT22;12384;48.112;18.418;2022-12-08T07:21:17;2.40;99.90
24260;DHT22;12384;48.112;18.418;2022-12-08T07:23:47;2.50;99.90
24260;DHT22;12384;48.112;18.418;2022-12-08T07:26:23;2.50;99.90
24260;DHT22;12384;48.112;18.418;2022-12-08T07:28:52;2.50;99.90
24260;DHT22;12384;48.112;18.418;2022-12-08T07:31:23;2.60;99.90
24260;DHT22;12384;48.112;18.418;2022-12-08T07:33:53;2.60;99.90
24260;DHT22;12384;48.112;18.418;2022-12-08T07:36:22;2.60;99.90
24260;DHT22;12384;48.112;18.418;2022-12-08T07:38:51;2.70;99.90
24260;DHT22;12384;48.112;18.418;2022-12-08T07:41:21;2.70;99.90
24260;DHT22;12384;48.112;18.418;2022-12-08T07:43:50;2.70;99.90
24260;DHT22;12384;48.112;18.418;2022-12-08T07:46:22;2.80;99.90
24260;DHT22;12384;48.112;18.418;2022-12-08T07:48:53;2.80;99.90
24260;DHT22;12384;48.112;18.418;2022-12-08T07:51:23;2.80;99.90
24260;DHT22;12384;48.112;18.418;2022-12-08T07:53:52;2.80;99.90
24260;DHT22;12384;48.112;18.418;2022-12-08T07:56:21;2.80;99.90
24260;DHT22;12384;48.112;18.418;2022-12-08T07:58:49;2.80;99.90
24260;DHT22;12384;48.112;18.418;2022-12-08T08:01:22;2.90;99.90
24260;DHT22;12384;48.112;18.418;2022-12-08T08:03:52;2.90;99.90
24260;DHT22;12384;48.112;18.418;2022-12-08T08:06:21;2.90;99.90
24260;DHT22;12384;48.112;18.418;2022-12-08T08:08:50;2.90;99.90
24260;DHT22;12384;48.112;18.418;2022-12-08T08:11:18;2.90;99.90
24260;DHT22;12384;48.112;18.418;2022-12-08T08:13:48;3.00;99.90
24260;DHT22;12384;48.112;18.418;2022-12-08T08:16:17;3.00;99.90
24260;DHT22;12384;48.112;18.418;2022-12-08T08:18:51;3.00;99.90
24260;DHT22;12384;48.112;18.418;2022-12-08T08:21:20;3.00;99.90
24260;DHT22;12384;48.112;18.418;2022-12-08T08:24:09;3.00;99.90
24260;DHT22;12384;48.112;18.418;2022-12-08T08:26:37;3.10;99.90
24260;DHT22;12384;48.112;18.418;2022-12-08T08:29:21;3.10;99.90
24260;DHT22;12384;48.112;18.418;2022-12-08T08:31:50;3.10;99.90
24260;DHT22;12384;48.112;18.418;2022-12-08T08:34:19;3.20;99.90
24260;DHT22;12384;48.112;18.418;2022-12-08T08:36:48;3.20;99.90
24260;DHT22;12384;48.112;18.418;2022-12-08T08:39:17;3.30;99.90
24260;DHT22;12384;48.112;18.418;2022-12-08T08:41:45;3.40;99.90
24260;DHT22;12384;48.112;18.418;2022-12-08T08:44:14;3.40;99.90
24260;DHT22;12384;48.112;18.418;2022-12-08T08:46:43;3.40;99.90
24260;DHT22;12384;48.112;18.418;2022-12-08T08:49:11;3.50;99.90
24260;DHT22;12384;48.112;18.418;2022-12-08T08:51:41;3.50;99.90
24260;DHT22;12384;48.112;18.418;2022-12-08T08:54:10;3.50;99.90
24260;DHT22;12384;48.112;18.418;2022-12-08T08:56:39;3.50;99.90
24260;DHT22;12384;48.112;18.418;2022-12-08T08:59:08;3.50;99.90
24260;DHT22;12384;48.112;18.418;2022-12-08T09:01:40;3.50;99.90
24260;DHT22;12384;48.112;18.418;2022-12-08T09:04:09;3.50;99.90
24260;DHT22;12384;48.112;18.418;2022-12-08T09:06:38;3.50;99.90
24260;DHT22;12384;48.112;18.418;2022-12-08T09:09:08;3.50;99.90
24260;DHT22;12384;48.112;18.418;2022-12-08T09:11:37;3.50;99.90
24260;DHT22;12384;48.112;18.418;2022-12-08T09:14:05;3.50;99.90
24260;DHT22;12384;48.112;18.418;2022-12-08T09:16:34;3.60;99.90
24260;DHT22;12384;48.112;18.418;2022-12-08T09:19:08;3.60;99.90
24260;DHT22;12384;48.112;18.418;2022-12-08T09:21:38;3.60;99.90
24260;DHT22;12384;48.112;18.418;2022-12-08T09:24:09;3.70;99.90
24260;DHT22;12384;48.112;18.418;2022-12-08T09:26:42;3.70;99.90
24260;DHT22;12384;48.112;18.418;2022-12-08T09:29:11;3.70;99.90
24260;DHT22;12384;48.112;18.418;2022-12-08T09:31:41;3.80;99.90
24260;DHT22;12384;48.112;18.418;2022-12-08T09:34:10;3.80;99.90
24260;DHT22;12384;48.112;18.418;2022-12-08T09:36:43;3.90;99.90
24260;DHT22;12384;48.112;18.418;2022-12-08T09:39:13;3.80;99.90
24260;DHT22;12384;48.112;18.418;2022-12-08T09:41:44;3.90;99.90
24260;DHT22;12384;48.112;18.418;2022-12-08T09:44:40;3.80;99.90
24260;DHT22;12384;48.112;18.418;2022-12-08T09:47:17;3.90;99.90
24260;DHT22;12384;48.112;18.418;2022-12-08T09:50:09;3.90;99.90
24260;DHT22;12384;48.112;18.418;2022-12-08T09:52:44;3.90;99.90
24260;DHT22;12384;48.112;18.418;2022-12-08T09:55:21;3.90;99.90
24260;DHT22;12384;48.112;18.418;2022-12-08T09:58:00;4.00;99.90
24260;DHT22;12384;48.112;18.418;2022-12-08T10:00:30;4.00;99.90
24260;DHT22;12384;48.112;18.418;2022-12-08T10:03:07;4.00;99.90
24260;DHT22;12384;48.112;18.418;2022-12-08T10:05:48;4.00;99.90
24260;DHT22;12384;48.112;18.418;2022-12-08T10:08:22;4.10;99.90
24260;DHT22;12384;48.112;18.418;2022-12-08T10:11:21;4.10;99.90
24260;DHT22;12384;48.112;18.418;2022-12-08T10:14:01;4.10;99.90
24260;DHT22;12384;48.112;18.418;2022-12-08T10:16:39;4.00;99.90
24260;DHT22;12384;48.112;18.418;2022-12-08T10:19:13;4.10;99.90
24260;DHT22;12384;48.112;18.418;2022-12-08T10:21:43;4.00;99.90
24260;DHT22;12384;48.112;18.418;2022-12-08T10:24:18;4.00;99.90
24260;DHT22;12384;48.112;18.418;2022-12-08T10:26:51;4.00;99.90
24260;DHT22;12384;48.112;18.418;2022-12-08T10:29:19;4.00;99.90
24260;DHT22;12384;48.112;18.418;2022-12-08T10:31:49;4.10;99.90
24260;DHT22;12384;48.112;18.418;2022-12-08T10:34:23;4.10;99.90
24260;DHT22;12384;48.112;18.418;2022-12-08T10:36:55;4.10;99.90
24260;DHT22;12384;48.112;18.418;2022-12-08T10:39:42;4.10;99.90
24260;DHT22;12384;48.112;18.418;2022-12-08T10:42:21;4.20;99.90
24260;DHT22;12384;48.112;18.418;2022-12-08T10:44:59;4.20;99.90
24260;DHT22;12384;48.112;18.418;2022-12-08T10:47:58;4.20;99.90
24260;DHT22;12384;48.112;18.418;2022-12-08T10:50:32;4.20;99.90
24260;DHT22;12384;48.112;18.418;2022-12-08T10:53:12;4.20;99.90
24260;DHT22;12384;48.112;18.418;2022-12-08T10:56:07;4.20;99.90
24260;DHT22;12384;48.112;18.418;2022-12-08T10:58:41;4.30;99.90
24260;DHT22;12384;48.112;18.418;2022-12-08T11:01:27;4.30;99.90
24260;DHT22;12384;48.112;18.418;2022-12-08T11:04:10;4.30;99.90
24260;DHT22;12384;48.112;18.418;2022-12-08T11:06:44;4.40;99.90
24260;DHT22;12384;48.112;18.418;2022-12-08T11:09:31;4.40;99.90
24260;DHT22;12384;48.112;18.418;2022-12-08T11:12:16;4.40;99.90
24260;DHT22;12384;48.112;18.418;2022-12-08T11:14:57;4.40;99.90
24260;DHT22;12384;48.112;18.418;2022-12-08T11:17:36;4.40;99.90
24260;DHT22;12384;48.112;18.418;2022-12-08T11:20:20;4.40;99.90
24260;DHT22;12384;48.112;18.418;2022-12-08T11:22:54;4.40;99.90
24260;DHT22;12384;48.112;18.418;2022-12-08T11:25:25;4.40;99.90
24260;DHT22;12384;48.112;18.418;2022-12-08T11:27:56;4.50;99.90
24260;DHT22;12384;48.112;18.418;2022-12-08T11:30:36;4.50;99.90
24260;DHT22;12384;48.112;18.418;2022-12-08T11:33:13;4.50;99.90
24260;DHT22;12384;48.112;18.418;2022-12-08T11:35:51;4.60;99.90
24260;DHT22;12384;48.112;18.418;2022-12-08T11:38:40;4.60;99.90
24260;DHT22;12384;48.112;18.418;2022-12-08T11:41:17;4.60;99.90
24260;DHT22;12384;48.112;18.418;2022-12-08T11:44:13;4.60;99.90
24260;DHT22;12384;48.112;18.418;2022-12-08T11:47:15;4.60;99.90
24260;DHT22;12384;48.112;18.418;2022-12-08T11:49:51;4.60;99.90
24260;DHT22;12384;48.112;18.418;2022-12-08T11:52:47;4.60;99.90
24260;DHT22;12384;48.112;18.418;2022-12-08T11:55:51;4.60;99.90
24260;DHT22;12384;48.112;18.418;2022-12-08T11:58:49;4.70;99.90
24260;DHT22;12384;48.112;18.418;2022-12-08T12:01:24;4.70;99.90
24260;DHT22;12384;48.112;18.418;2022-12-08T12:04:23;4.70;99.90
24260;DHT22;12384;48.112;18.418;2022-12-08T12:07:29;4.70;99.90
24260;DHT22;12384;48.112;18.418;2022-12-08T12:10:32;4.60;99.90
24260;DHT22;12384;48.112;18.418;2022-12-08T12:13:20;4.70;99.90
24260;DHT22;12384;48.112;18.418;2022-12-08T12:16:31;4.60;99.90
24260;DHT22;12384;48.112;18.418;2022-12-08T12:19:10;4.70;99.90
24260;DHT22;12384;48.112;18.418;2022-12-08T12:21:45;4.70;99.90
24260;DHT22;12384;48.112;18.418;2022-12-08T12:24:21;4.70;99.90
24260;DHT22;12384;48.112;18.418;2022-12-08T12:27:06;4.70;99.90
24260;DHT22;12384;48.112;18.418;2022-12-08T12:29:45;4.70;99.90
24260;DHT22;12384;48.112;18.418;2022-12-08T12:32:39;4.70;99.90
24260;DHT22;12384;48.112;18.418;2022-12-08T12:35:18;4.60;99.90
24260;DHT22;12384;48.112;18.418;2022-12-08T12:37:59;4.60;99.90
24260;DHT22;12384;48.112;18.418;2022-12-08T12:40:38;4.60;99.90
24260;DHT22;12384;48.112;18.418;2022-12-08T12:43:29;4.60;99.90
24260;DHT22;12384;48.112;18.418;2022-12-08T12:46:57;4.60;99.90
24260;DHT22;12384;48.112;18.418;2022-12-08T12:59:42;4.60;99.90
24260;DHT22;12384;48.112;18.418;2022-12-08T13:02:28;4.60;99.90
24260;DHT22;12384;48.112;18.418;2022-12-08T13:05:27;4.50;99.90
24260;DHT22;12384;48.112;18.418;2022-12-08T13:08:19;4.50;99.90
24260;DHT22;12384;48.112;18.418;2022-12-08T13:10:58;4.50;99.90
24260;DHT22;12384;48.112;18.418;2022-12-08T13:14:20;4.50;99.90
24260;DHT22;12384;48.112;18.418;2022-12-08T13:17:10;4.50;99.90
24260;DHT22;12384;48.112;18.418;2022-12-08T13:19:45;4.50;99.90
24260;DHT22;12384;48.112;18.418;2022-12-08T13:32:55;4.50;99.90
24260;DHT22;12384;48.112;18.418;2022-12-08T13:35:54;4.50;99.90
24260;DHT22;12384;48.112;18.418;2022-12-08T13:38:30;4.50;99.90
24260;DHT22;12384;48.112;18.418;2022-12-08T13:41:28;4.50;99.90
24260;DHT22;12384;48.112;18.418;2022-12-08T13:44:10;4.50;99.90
24260;DHT22;12384;48.112;18.418;2022-12-08T13:47:05;4.50;99.90
24260;DHT22;12384;48.112;18.418;2022-12-08T13:50:02;4.50;99.90
24260;DHT22;12384;48.112;18.418;2022-12-08T13:52:58;4.50;99.90
24260;DHT22;12384;48.112;18.418;2022-12-08T13:59:09;4.50;99.90
24260;DHT22;12384;48.112;18.418;2022-12-08T14:01:57;4.50;99.90
24260;DHT22;12384;48.112;18.418;2022-12-08T14:04:29;4.40;99.90
24260;DHT22;12384;48.112;18.418;2022-12-08T14:07:22;4.40;99.90
24260;DHT22;12384;48.112;18.418;2022-12-08T14:10:16;4.40;99.90
24260;DHT22;12384;48.112;18.418;2022-12-08T14:12:56;4.40;99.90
24260;DHT22;12384;48.112;18.418;2022-12-08T14:15:26;4.40;99.90
24260;DHT22;12384;48.112;18.418;2022-12-08T14:18:19;4.40;99.90
24260;DHT22;12384;48.112;18.418;2022-12-08T14:21:20;4.40;99.90
24260;DHT22;12384;48.112;18.418;2022-12-08T14:24:07;4.40;99.90
24260;DHT22;12384;48.112;18.418;2022-12-08T14:26:41;4.30;99.90
24260;DHT22;12384;48.112;18.418;2022-12-08T14:32:26;4.30;99.90
24260;DHT22;12384;48.112;18.418;2022-12-08T14:35:19;4.30;99.90
24260;DHT22;12384;48.112;18.418;2022-12-08T14:38:11;4.30;99.90
24260;DHT22;12384;48.112;18.418;2022-12-08T14:41:23;4.30;99.90
24260;DHT22;12384;48.112;18.418;2022-12-08T14:44:34;4.20;99.90
24260;DHT22;12384;48.112;18.418;2022-12-08T14:47:06;4.20;99.90
24260;DHT22;12384;48.112;18.418;2022-12-08T14:49:46;4.20;99.90
24260;DHT22;12384;48.112;18.418;2022-12-08T14:52:16;4.30;99.90
24260;DHT22;12384;48.112;18.418;2022-12-08T14:54:49;4.30;99.90
24260;DHT22;12384;48.112;18.418;2022-12-08T14:57:34;4.20;99.90
24260;DHT22;12384;48.112;18.418;2022-12-08T15:00:08;4.20;99.90
24260;DHT22;12384;48.112;18.418;2022-12-08T15:02:43;4.20;99.90
24260;DHT22;12384;48.112;18.418;2022-12-08T15:05:18;4.20;99.90
24260;DHT22;12384;48.112;18.418;2022-12-08T15:08:03;4.20;99.90
24260;DHT22;12384;48.112;18.418;2022-12-08T15:10:42;4.20;99.90
24260;DHT22;12384;48.112;18.418;2022-12-08T15:16:54;4.20;99.90
24260;DHT22;12384;48.112;18.418;2022-12-08T15:19:28;4.10;99.90
24260;DHT22;12384;48.112;18.418;2022-12-08T15:25:29;4.10;99.90
24260;DHT22;12384;48.112;18.418;2022-12-08T15:28:22;4.10;99.90
24260;DHT22;12384;48.112;18.418;2022-12-08T15:31:22;4.10;99.90
24260;DHT22;12384;48.112;18.418;2022-12-08T15:35:21;4.10;99.90
24260;DHT22;12384;48.112;18.418;2022-12-08T15:36:52;4.10;99.90
24260;DHT22;12384;48.112;18.418;2022-12-08T15:39:44;4.10;99.90
24260;DHT22;12384;48.112;18.418;2022-12-08T15:42:16;4.10;99.90
24260;DHT22;12384;48.112;18.418;2022-12-08T15:44:56;4.10;99.90
24260;DHT22;12384;48.112;18.418;2022-12-08T15:50:23;4.10;99.90
24260;DHT22;12384;48.112;18.418;2022-12-08T15:53:07;4.10;99.90
24260;DHT22;12384;48.112;18.418;2022-12-08T15:55:40;4.10;99.90
24260;DHT22;12384;48.112;18.418;2022-12-08T15:59:08;4.10;99.90
24260;DHT22;12384;48.112;18.418;2022-12-08T16:01:40;4.10;99.90
24260;DHT22;12384;48.112;18.418;2022-12-08T16:04:17;4.10;99.90
24260;DHT22;12384;48.112;18.418;2022-12-08T16:10:28;4.00;99.90
24260;DHT22;12384;48.112;18.418;2022-12-08T16:13:40;4.00;99.90
24260;DHT22;12384;48.112;18.418;2022-12-08T16:16:44;4.00;99.90
24260;DHT22;12384;48.112;18.418;2022-12-08T16:19:47;4.00;99.90
24260;DHT22;12384;48.112;18.418;2022-12-08T16:22:24;4.00;99.90
24260;DHT22;12384;48.112;18.418;2022-12-08T16:25:15;4.00;99.90
24260;DHT22;12384;48.112;18.418;2022-12-08T16:27:53;4.00;99.90
24260;DHT22;12384;48.112;18.418;2022-12-08T16:30:40;3.90;99.90
24260;DHT22;12384;48.112;18.418;2022-12-08T16:33:16;3.90;99.90
24260;DHT22;12384;48.112;18.418;2022-12-08T16:35:59;3.90;99.90
24260;DHT22;12384;48.112;18.418;2022-12-08T16:38:34;3.90;99.90
24260;DHT22;12384;48.112;18.418;2022-12-08T16:41:23;3.90;99.90
24260;DHT22;12384;48.112;18.418;2022-12-08T16:44:18;3.90;99.90
24260;DHT22;12384;48.112;18.418;2022-12-08T16:47:07;3.90;99.90
24260;DHT22;12384;48.112;18.418;2022-12-08T16:49:37;3.90;99.90
24260;DHT22;12384;48.112;18.418;2022-12-08T16:52:30;3.90;99.90
24260;DHT22;12384;48.112;18.418;2022-12-08T16:55:20;3.90;99.90
24260;DHT22;12384;48.112;18.418;2022-12-08T16:57:50;3.90;99.90
24260;DHT22;12384;48.112;18.418;2022-12-08T17:00:26;3.90;99.90
24260;DHT22;12384;48.112;18.418;2022-12-08T17:03:05;3.90;99.90
24260;DHT22;12384;48.112;18.418;2022-12-08T17:05:43;3.90;99.90
24260;DHT22;12384;48.112;18.418;2022-12-08T17:08:18;3.90;99.90